Terminal Aerodrome Forecast
Issued by NWS

Home | Current Version | Previous Version | Graphics & Text | Print | Product List | Glossary On
Versions: 1 2 3 4 5 6 7 8 9 10 11 12 13 14 15
000
FTUS45 KGGW 051720
TAFOLF
TAF
KOLF 051720Z 0518/0618 31017KT P6SM VCSH OVC015
     FM052100 31018KT P6SM SCT015 OVC050
     FM060000 30014KT P6SM BKN020
     FM060700 29011KT P6SM BKN035
     FM061500 29010KT P6SM BKN025=

USA.gov is the U.S. government's official web portal to all federal, state and local government web resources and services.